sensor_id;sensor_type;location;lat;lon;timestamp;pressure;altitude;pressure_sealevel;temperature;humidity
42691;BME280;28306;55.744;37.578;2023-02-25T00:01:43;97934.59;;;27.99;15.14
42691;BME280;28306;55.744;37.578;2023-02-25T00:04:09;97933.00;;;27.98;15.41
42691;BME280;28306;55.744;37.578;2023-02-25T00:06:34;97933.78;;;27.99;15.15
42691;BME280;28306;55.744;37.578;2023-02-25T00:09:00;97931.53;;;28.01;15.15
42691;BME280;28306;55.744;37.578;2023-02-25T00:11:25;97931.53;;;28.01;15.06
42691;BME280;28306;55.744;37.578;2023-02-25T00:13:51;97925.25;;;28.00;15.15
42691;BME280;28306;55.744;37.578;2023-02-25T00:16:17;97931.53;;;28.01;15.12
42691;BME280;28306;55.744;37.578;2023-02-25T00:18:42;97923.31;;;28.01;15.00
42691;BME280;28306;55.744;37.578;2023-02-25T00:21:11;97924.47;;;28.00;15.07
42691;BME280;28306;55.744;37.578;2023-02-25T00:23:40;97917.06;;;28.00;15.16
42691;BME280;28306;55.744;37.578;2023-02-25T00:26:05;97919.00;;;28.00;15.03
42691;BME280;28306;55.744;37.578;2023-02-25T00:28:33;97917.06;;;28.00;15.18
42691;BME280;28306;55.744;37.578;2023-02-25T00:30:58;97914.34;;;28.00;15.21
42691;BME280;28306;55.744;37.578;2023-02-25T00:33:24;97905.81;;;28.02;14.99
42691;BME280;28306;55.744;37.578;2023-02-25T00:35:50;97901.44;;;28.01;15.03
42691;BME280;28306;55.744;37.578;2023-02-25T00:38:15;97902.28;;;28.01;15.28
42691;BME280;28306;55.744;37.578;2023-02-25T00:40:43;97896.00;;;28.01;15.29
42691;BME280;28306;55.744;37.578;2023-02-25T00:43:09;97900.34;;;28.02;15.19
42691;BME280;28306;55.744;37.578;2023-02-25T00:45:34;97893.75;;;28.03;15.02
42691;BME280;28306;55.744;37.578;2023-02-25T00:48:03;97891.81;;;28.03;14.99
42691;BME280;28306;55.744;37.578;2023-02-25T00:50:29;97891.81;;;28.03;14.98
42691;BME280;28306;55.744;37.578;2023-02-25T00:52:54;97889.06;;;28.03;15.06
42691;BME280;28306;55.744;37.578;2023-02-25T00:55:19;97889.88;;;28.04;14.98
42691;BME280;28306;55.744;37.578;2023-02-25T00:57:45;97884.41;;;28.04;15.05
42691;BME280;28306;55.744;37.578;2023-02-25T01:00:10;97890.69;;;28.04;15.17
42691;BME280;28306;55.744;37.578;2023-02-25T01:02:42;97888.75;;;28.05;15.26
42691;BME280;28306;55.744;37.578;2023-02-25T01:05:12;97890.69;;;28.04;15.02
42691;BME280;28306;55.744;37.578;2023-02-25T01:07:38;97884.88;;;28.06;15.12
42691;BME280;28306;55.744;37.578;2023-02-25T01:10:04;97887.63;;;28.06;15.05
42691;BME280;28306;55.744;37.578;2023-02-25T01:12:30;97884.06;;;28.05;14.99
42691;BME280;28306;55.744;37.578;2023-02-25T01:14:56;97884.88;;;28.06;15.08
42691;BME280;28306;55.744;37.578;2023-02-25T01:17:21;97884.88;;;28.06;15.34
42691;BME280;28306;55.744;37.578;2023-02-25T01:19:47;97874.75;;;28.07;15.24
42691;BME280;28306;55.744;37.578;2023-02-25T01:22:13;97872.00;;;28.07;15.08
42691;BME280;28306;55.744;37.578;2023-02-25T01:24:38;97883.41;;;28.09;15.13
42691;BME280;28306;55.744;37.578;2023-02-25T01:27:05;97868.16;;;28.08;14.93
42691;BME280;28306;55.744;37.578;2023-02-25T01:29:33;97870.88;;;28.08;15.02
42691;BME280;28306;55.744;37.578;2023-02-25T01:32:00;97868.94;;;28.08;15.26
42691;BME280;28306;55.744;37.578;2023-02-25T01:34:26;97863.47;;;28.08;15.17
42691;BME280;28306;55.744;37.578;2023-02-25T01:36:53;97869.75;;;28.09;15.17
42691;BME280;28306;55.744;37.578;2023-02-25T01:39:19;97865.09;;;28.09;15.26
42691;BME280;28306;55.744;37.578;2023-02-25T01:41:45;97861.53;;;28.09;14.95
42691;BME280;28306;55.744;37.578;2023-02-25T01:44:20;97863.47;;;28.08;15.01
42691;BME280;28306;55.744;37.578;2023-02-25T01:46:47;97858.00;;;28.08;15.27
42691;BME280;28306;55.744;37.578;2023-02-25T01:51:45;97853.34;;;28.09;15.32
42691;BME280;28306;55.744;37.578;2023-02-25T01:54:11;97843.22;;;28.09;15.17
42691;BME280;28306;55.744;37.578;2023-02-25T01:56:39;97849.47;;;28.10;14.99
42691;BME280;28306;55.744;37.578;2023-02-25T01:59:05;97852.22;;;28.10;14.92
42691;BME280;28306;55.744;37.578;2023-02-25T02:01:31;97840.16;;;28.11;15.13
42691;BME280;28306;55.744;37.578;2023-02-25T02:04:00;97848.34;;;28.11;14.94
42691;BME280;28306;55.744;37.578;2023-02-25T02:06:30;97844.81;;;28.10;15.17
42691;BME280;28306;55.744;37.578;2023-02-25T02:08:57;97844.81;;;28.10;14.95
42691;BME280;28306;55.744;37.578;2023-02-25T02:11:24;97844.81;;;28.10;15.29
42691;BME280;28306;55.744;37.578;2023-02-25T02:13:51;97849.16;;;28.11;15.00
42691;BME280;28306;55.744;37.578;2023-02-25T02:18:51;97834.69;;;28.11;15.13
42691;BME280;28306;55.744;37.578;2023-02-25T02:21:31;97833.06;;;28.10;15.31
42691;BME280;28306;55.744;37.578;2023-02-25T02:44:36;97816.00;;;28.13;15.22
42691;BME280;28306;55.744;37.578;2023-02-25T02:47:08;97813.28;;;28.13;15.30
42691;BME280;28306;55.744;37.578;2023-02-25T02:49:47;97815.22;;;28.12;15.01
42691;BME280;28306;55.744;37.578;2023-02-25T02:52:18;97812.47;;;28.12;14.92
42691;BME280;28306;55.744;37.578;2023-02-25T02:54:48;97810.53;;;28.13;15.28
42691;BME280;28306;55.744;37.578;2023-02-25T02:57:16;97805.88;;;28.13;15.14
42691;BME280;28306;55.744;37.578;2023-02-25T02:59:46;97813.75;;;28.15;15.18
42691;BME280;28306;55.744;37.578;2023-02-25T03:02:19;97816.47;;;28.15;15.11
42691;BME280;28306;55.744;37.578;2023-02-25T03:04:47;97806.34;;;28.15;15.22
42691;BME280;28306;55.744;37.578;2023-02-25T03:07:14;97801.34;;;28.17;15.18
42691;BME280;28306;55.744;37.578;2023-02-25T03:09:54;97800.88;;;28.15;14.87
42691;BME280;28306;55.744;37.578;2023-02-25T03:12:22;97796.22;;;28.16;15.00
42691;BME280;28306;55.744;37.578;2023-02-25T03:14:48;97798.94;;;28.16;15.24
42691;BME280;28306;55.744;37.578;2023-02-25T03:22:54;97799.41;;;28.18;15.32
42691;BME280;28306;55.744;37.578;2023-02-25T03:27:36;97791.19;;;28.18;15.11
42691;BME280;28306;55.744;37.578;2023-02-25T03:32:42;97794.41;;;28.20;15.02
42691;BME280;28306;55.744;37.578;2023-02-25T03:35:10;97796.34;;;28.19;14.96
42691;BME280;28306;55.744;37.578;2023-02-25T03:37:37;97794.75;;;28.18;14.91
42691;BME280;28306;55.744;37.578;2023-02-25T03:40:04;97794.41;;;28.20;15.00
42691;BME280;28306;55.744;37.578;2023-02-25T03:42:35;97789.75;;;28.20;15.10
42691;BME280;28306;55.744;37.578;2023-02-25T03:45:04;97789.41;;;28.22;15.27
42691;BME280;28306;55.744;37.578;2023-02-25T03:47:32;97792.16;;;28.22;15.04
42691;BME280;28306;55.744;37.578;2023-02-25T03:50:07;97791.34;;;28.21;15.09
42691;BME280;28306;55.744;37.578;2023-02-25T03:52:34;97799.56;;;28.21;15.22
42691;BME280;28306;55.744;37.578;2023-02-25T03:55:04;97785.06;;;28.21;15.04
42691;BME280;28306;55.744;37.578;2023-02-25T03:57:38;97787.47;;;28.22;15.27
42691;BME280;28306;55.744;37.578;2023-02-25T04:00:09;97779.25;;;28.22;15.34
42691;BME280;28306;55.744;37.578;2023-02-25T04:02:42;97787.47;;;28.22;15.22
42691;BME280;28306;55.744;37.578;2023-02-25T04:05:08;97787.97;;;28.25;15.33
42691;BME280;28306;55.744;37.578;2023-02-25T04:07:34;97787.13;;;28.24;15.09
42691;BME280;28306;55.744;37.578;2023-02-25T04:10:00;97781.66;;;28.24;15.42
42691;BME280;28306;55.744;37.578;2023-02-25T04:12:25;97780.09;;;28.23;15.09
42691;BME280;28306;55.744;37.578;2023-02-25T04:14:51;97779.25;;;28.22;15.14
42691;BME280;28306;55.744;37.578;2023-02-25T04:17:17;97780.88;;;28.23;15.04
42691;BME280;28306;55.744;37.578;2023-02-25T04:19:43;97785.22;;;28.25;15.34
42691;BME280;28306;55.744;37.578;2023-02-25T04:22:09;97784.41;;;28.24;15.08
42691;BME280;28306;55.744;37.578;2023-02-25T04:24:34;97775.41;;;28.23;15.10
42691;BME280;28306;55.744;37.578;2023-02-25T04:27:00;97779.75;;;28.25;14.97
42691;BME280;28306;55.744;37.578;2023-02-25T04:29:27;97781.34;;;28.26;15.04
42691;BME280;28306;55.744;37.578;2023-02-25T04:31:53;97778.59;;;28.26;15.03
42691;BME280;28306;55.744;37.578;2023-02-25T04:34:18;97781.34;;;28.26;15.10
42691;BME280;28306;55.744;37.578;2023-02-25T04:36:44;97785.69;;;28.27;15.17
42691;BME280;28306;55.744;37.578;2023-02-25T04:39:10;97775.88;;;28.26;15.34
42691;BME280;28306;55.744;37.578;2023-02-25T04:41:39;97776.69;;;28.26;15.00
42691;BME280;28306;55.744;37.578;2023-02-25T04:44:05;97784.56;;;28.28;15.33
42691;BME280;28306;55.744;37.578;2023-02-25T04:46:32;97781.81;;;28.28;15.08
42691;BME280;28306;55.744;37.578;2023-02-25T04:48:58;97779.09;;;28.28;15.03
42691;BME280;28306;55.744;37.578;2023-02-25T04:51:24;97788.88;;;28.29;15.05
42691;BME280;28306;55.744;37.578;2023-02-25T04:53:49;97792.44;;;28.29;15.09
42691;BME280;28306;55.744;37.578;2023-02-25T04:56:15;97792.44;;;28.29;15.14
42691;BME280;28306;55.744;37.578;2023-02-25T04:58:40;97790.47;;;28.30;15.26
42691;BME280;28306;55.744;37.578;2023-02-25T05:01:06;97801.88;;;28.32;15.00
42691;BME280;28306;55.744;37.578;2023-02-25T05:03:33;97796.41;;;28.32;15.20
42691;BME280;28306;55.744;37.578;2023-02-25T05:05:58;97799.16;;;28.32;15.12
42691;BME280;28306;55.744;37.578;2023-02-25T05:08:24;97794.47;;;28.32;15.01
42691;BME280;28306;55.744;37.578;2023-02-25T05:10:49;97792.56;;;28.33;15.12
42691;BME280;28306;55.744;37.578;2023-02-25T05:13:15;97796.06;;;28.33;15.16
42691;BME280;28306;55.744;37.578;2023-02-25T05:15:41;97796.53;;;28.35;15.18
42691;BME280;28306;55.744;37.578;2023-02-25T05:18:07;97793.00;;;28.35;15.02
42691;BME280;28306;55.744;37.578;2023-02-25T05:20:32;97791.06;;;28.35;15.06
42691;BME280;28306;55.744;37.578;2023-02-25T05:22:58;97790.28;;;28.35;15.27
42691;BME280;28306;55.744;37.578;2023-02-25T05:25:23;97781.75;;;28.36;15.24
42691;BME280;28306;55.744;37.578;2023-02-25T05:27:49;97797.03;;;28.37;15.21
42691;BME280;28306;55.744;37.578;2023-02-25T05:30:14;97806.03;;;28.38;15.28
42691;BME280;28306;55.744;37.578;2023-02-25T05:32:40;97814.69;;;28.40;14.94
42691;BME280;28306;55.744;37.578;2023-02-25T05:35:06;97803.75;;;28.40;15.17
42691;BME280;28306;55.744;37.578;2023-02-25T05:37:33;97801.00;;;28.40;15.02
42691;BME280;28306;55.744;37.578;2023-02-25T05:39:58;97809.69;;;28.42;15.15
42691;BME280;28306;55.744;37.578;2023-02-25T05:42:27;97809.69;;;28.42;15.00
42691;BME280;28306;55.744;37.578;2023-02-25T05:44:53;97805.03;;;28.43;15.11
42691;BME280;28306;55.744;37.578;2023-02-25T05:47:19;97803.06;;;28.43;15.25
42691;BME280;28306;55.744;37.578;2023-02-25T05:49:44;97805.47;;;28.45;15.06
42691;BME280;28306;55.744;37.578;2023-02-25T05:52:10;97814.50;;;28.45;15.20
42691;BME280;28306;55.744;37.578;2023-02-25T05:54:37;97820.75;;;28.46;15.27
42691;BME280;28306;55.744;37.578;2023-02-25T05:57:02;97810.63;;;28.46;15.08
42691;BME280;28306;55.744;37.578;2023-02-25T05:59:28;97798.53;;;28.47;14.95
42691;BME280;28306;55.744;37.578;2023-02-25T06:01:53;97794.69;;;28.48;14.98
42691;BME280;28306;55.744;37.578;2023-02-25T06:04:19;97799.50;;;28.51;15.18
42691;BME280;28306;55.744;37.578;2023-02-25T06:06:45;97805.75;;;28.52;14.94
42691;BME280;28306;55.744;37.578;2023-02-25T06:09:17;97815.56;;;28.53;15.18
42691;BME280;28306;55.744;37.578;2023-02-25T06:11:43;97819.09;;;28.53;15.15
42691;BME280;28306;55.744;37.578;2023-02-25T06:14:08;97819.88;;;28.54;15.02
42691;BME280;28306;55.744;37.578;2023-02-25T06:16:34;97817.97;;;28.54;15.06
42691;BME280;28306;55.744;37.578;2023-02-25T06:19:00;97812.50;;;28.54;14.93
42691;BME280;28306;55.744;37.578;2023-02-25T06:21:25;97805.09;;;28.55;15.29
42691;BME280;28306;55.744;37.578;2023-02-25T06:23:51;97816.50;;;28.57;15.12
42691;BME280;28306;55.744;37.578;2023-02-25T06:26:16;97820.88;;;28.58;14.98
42691;BME280;28306;55.744;37.578;2023-02-25T06:28:42;97817.00;;;28.59;15.17
42691;BME280;28306;55.744;37.578;2023-02-25T06:31:08;97820.53;;;28.60;15.28
42691;BME280;28306;55.744;37.578;2023-02-25T06:33:34;97818.59;;;28.60;14.89
42691;BME280;28306;55.744;37.578;2023-02-25T06:36:00;97813.13;;;28.60;14.89
42691;BME280;28306;55.744;37.578;2023-02-25T06:38:25;97811.19;;;28.61;14.90
42691;BME280;28306;55.744;37.578;2023-02-25T06:40:51;97811.66;;;28.63;15.10
42691;BME280;28306;55.744;37.578;2023-02-25T06:43:16;97821.47;;;28.64;15.11
42691;BME280;28306;55.744;37.578;2023-02-25T06:45:42;97811.31;;;28.64;14.98
42691;BME280;28306;55.744;37.578;2023-02-25T06:48:08;97813.25;;;28.64;15.28
42691;BME280;28306;55.744;37.578;2023-02-25T06:50:34;97807.44;;;28.65;14.95
42691;BME280;28306;55.744;37.578;2023-02-25T06:52:59;97814.84;;;28.65;15.11
42691;BME280;28306;55.744;37.578;2023-02-25T06:55:27;97813.72;;;28.66;14.89
42691;BME280;28306;55.744;37.578;2023-02-25T06:57:52;97821.94;;;28.66;14.90
42691;BME280;28306;55.744;37.578;2023-02-25T07:00:19;97816.47;;;28.66;14.90
42691;BME280;28306;55.744;37.578;2023-02-25T07:02:44;97823.50;;;28.67;14.94
42691;BME280;28306;55.744;37.578;2023-02-25T07:05:10;97822.38;;;28.68;15.25
42691;BME280;28306;55.744;37.578;2023-02-25T07:07:35;97821.25;;;28.69;14.94
42691;BME280;28306;55.744;37.578;2023-02-25T07:10:01;97828.66;;;28.68;15.09
42691;BME280;28306;55.744;37.578;2023-02-25T07:12:26;97824.00;;;28.69;15.18
42691;BME280;28306;55.744;37.578;2023-02-25T07:14:52;97816.56;;;28.69;15.19
42691;BME280;28306;55.744;37.578;2023-02-25T07:17:17;97813.50;;;28.71;14.94
42691;BME280;28306;55.744;37.578;2023-02-25T07:19:42;97828.81;;;28.72;14.94
42691;BME280;28306;55.744;37.578;2023-02-25T07:22:11;97821.38;;;28.72;15.01
42691;BME280;28306;55.744;37.578;2023-02-25T07:24:38;97816.69;;;28.73;15.24
42691;BME280;28306;55.744;37.578;2023-02-25T07:27:03;97823.78;;;28.74;14.92
42691;BME280;28306;55.744;37.578;2023-02-25T07:29:29;97815.25;;;28.75;15.17
42691;BME280;28306;55.744;37.578;2023-02-25T07:31:54;97818.75;;;28.76;14.96
42691;BME280;28306;55.744;37.578;2023-02-25T07:34:19;97823.91;;;28.77;15.08
42691;BME280;28306;55.744;37.578;2023-02-25T07:36:45;97822.00;;;28.78;15.11
42691;BME280;28306;55.744;37.578;2023-02-25T07:39:11;97832.94;;;28.78;15.06
42691;BME280;28306;55.744;37.578;2023-02-25T07:41:36;97831.66;;;28.75;15.19
42691;BME280;28306;55.744;37.578;2023-02-25T07:44:03;97830.88;;;28.75;15.18
42691;BME280;28306;55.744;37.578;2023-02-25T07:46:29;97828.91;;;28.75;14.98
42691;BME280;28306;55.744;37.578;2023-02-25T07:48:55;97829.72;;;28.76;15.17
42691;BME280;28306;55.744;37.578;2023-02-25T07:51:21;97822.44;;;28.80;15.21
42691;BME280;28306;55.744;37.578;2023-02-25T07:53:47;97827.56;;;28.82;14.85
42691;BME280;28306;55.744;37.578;2023-02-25T07:56:13;97829.66;;;28.85;14.85
42691;BME280;28306;55.744;37.578;2023-02-25T07:58:39;97830.59;;;28.89;14.87
42691;BME280;28306;55.744;37.578;2023-02-25T08:03:33;97831.50;;;28.93;15.04
42691;BME280;28306;55.744;37.578;2023-02-25T08:05:59;97837.44;;;28.95;14.90
42691;BME280;28306;55.744;37.578;2023-02-25T08:08:27;97842.09;;;28.94;14.95
42691;BME280;28306;55.744;37.578;2023-02-25T08:10:52;97838.25;;;28.96;14.90
42691;BME280;28306;55.744;37.578;2023-02-25T08:13:18;97837.13;;;28.97;14.93
42691;BME280;28306;55.744;37.578;2023-02-25T08:15:43;97830.47;;;28.98;14.90
42691;BME280;28306;55.744;37.578;2023-02-25T08:18:09;97834.50;;;29.00;14.79
42691;BME280;28306;55.744;37.578;2023-02-25T08:20:35;97839.16;;;29.00;15.10
42691;BME280;28306;55.744;37.578;2023-02-25T08:23:00;97841.09;;;28.99;14.83
42691;BME280;28306;55.744;37.578;2023-02-25T08:25:26;97841.56;;;29.01;14.82
42691;BME280;28306;55.744;37.578;2023-02-25T08:27:51;97840.75;;;29.01;14.96
42691;BME280;28306;55.744;37.578;2023-02-25T08:30:17;97843.50;;;29.01;14.82
42691;BME280;28306;55.744;37.578;2023-02-25T08:32:43;97843.50;;;29.01;14.94
42691;BME280;28306;55.744;37.578;2023-02-25T08:35:09;97852.50;;;29.01;15.04
42691;BME280;28306;55.744;37.578;2023-02-25T08:37:34;97848.97;;;29.01;15.16
42691;BME280;28306;55.744;37.578;2023-02-25T08:40:00;97855.25;;;29.01;14.95
42691;BME280;28306;55.744;37.578;2023-02-25T08:42:25;97850.09;;;29.00;14.88
42691;BME280;28306;55.744;37.578;2023-02-25T08:44:51;97846.56;;;28.99;14.91
42691;BME280;28306;55.744;37.578;2023-02-25T08:47:17;97848.19;;;29.00;14.96
42691;BME280;28306;55.744;37.578;2023-02-25T08:49:42;97849.31;;;28.99;15.20
42691;BME280;28306;55.744;37.578;2023-02-25T08:52:08;97852.84;;;29.00;15.27
42691;BME280;28306;55.744;37.578;2023-02-25T08:54:37;97847.38;;;29.00;15.03
42691;BME280;28306;55.744;37.578;2023-02-25T08:57:03;97847.38;;;29.00;15.05
42691;BME280;28306;55.744;37.578;2023-02-25T08:59:28;97842.72;;;29.00;14.90
42691;BME280;28306;55.744;37.578;2023-02-25T09:02:00;97837.34;;;29.04;14.90
42691;BME280;28306;55.744;37.578;2023-02-25T09:04:26;97838.13;;;29.04;14.89
42691;BME280;28306;55.744;37.578;2023-02-25T09:06:52;97838.97;;;29.05;15.18
42691;BME280;28306;55.744;37.578;2023-02-25T09:09:19;97840.22;;;29.07;15.07
42691;BME280;28306;55.744;37.578;2023-02-25T09:11:45;97842.94;;;29.07;14.94
42691;BME280;28306;55.744;37.578;2023-02-25T09:14:11;97841.47;;;29.10;14.86
42691;BME280;28306;55.744;37.578;2023-02-25T09:16:37;97848.09;;;29.09;15.08
42691;BME280;28306;55.744;37.578;2023-02-25T09:19:02;97847.75;;;29.10;15.12
42691;BME280;28306;55.744;37.578;2023-02-25T09:21:28;97854.03;;;29.11;14.86
42691;BME280;28306;55.744;37.578;2023-02-25T09:23:54;97850.47;;;29.10;14.90
42691;BME280;28306;55.744;37.578;2023-02-25T09:26:20;97845.00;;;29.10;14.92
42691;BME280;28306;55.744;37.578;2023-02-25T09:28:45;97846.28;;;29.13;14.94
42691;BME280;28306;55.744;37.578;2023-02-25T09:31:12;97848.69;;;29.15;15.11
42691;BME280;28306;55.744;37.578;2023-02-25T09:33:38;97843.22;;;29.15;15.05
42691;BME280;28306;55.744;37.578;2023-02-25T09:36:14;97840.47;;;29.15;15.08
42691;BME280;28306;55.744;37.578;2023-02-25T09:38:40;97838.53;;;29.15;15.04
42691;BME280;28306;55.744;37.578;2023-02-25T09:43:41;97842.53;;;29.18;15.22
42691;BME280;28306;55.744;37.578;2023-02-25T09:46:09;97833.88;;;29.16;14.98
42691;BME280;28306;55.744;37.578;2023-02-25T09:48:37;97833.53;;;29.17;15.05
42691;BME280;28306;55.744;37.578;2023-02-25T09:51:27;97832.38;;;29.18;15.08
42691;BME280;28306;55.744;37.578;2023-02-25T09:56:34;97834.00;;;29.19;15.05
42691;BME280;28306;55.744;37.578;2023-02-25T09:59:00;97837.06;;;29.18;15.03
42691;BME280;28306;55.744;37.578;2023-02-25T10:01:35;97838.66;;;29.19;15.23
42691;BME280;28306;55.744;37.578;2023-02-25T10:06:39;97842.22;;;29.19;15.06
42691;BME280;28306;55.744;37.578;2023-02-25T10:11:51;97833.66;;;29.21;14.91
42691;BME280;28306;55.744;37.578;2023-02-25T10:22:21;97838.81;;;29.22;15.16
42691;BME280;28306;55.744;37.578;2023-02-25T10:24:51;97840.75;;;29.22;15.00
42691;BME280;28306;55.744;37.578;2023-02-25T10:27:28;97836.41;;;29.21;15.13
42691;BME280;28306;55.744;37.578;2023-02-25T10:30:04;97837.19;;;29.21;15.24
42691;BME280;28306;55.744;37.578;2023-02-25T10:32:32;97848.16;;;29.21;14.99
42691;BME280;28306;55.744;37.578;2023-02-25T10:34:59;97851.22;;;29.20;15.23
42691;BME280;28306;55.744;37.578;2023-02-25T10:37:27;97846.88;;;29.19;14.97
42691;BME280;28306;55.744;37.578;2023-02-25T10:39:55;97841.75;;;29.17;15.14
42691;BME280;28306;55.744;37.578;2023-02-25T10:42:22;97847.56;;;29.16;14.99
42691;BME280;28306;55.744;37.578;2023-02-25T10:44:47;97853.38;;;29.14;15.16
42691;BME280;28306;55.744;37.578;2023-02-25T10:47:15;97846.28;;;29.13;15.29
42691;BME280;28306;55.744;37.578;2023-02-25T10:50:09;97836.94;;;29.14;15.34
42691;BME280;28306;55.744;37.578;2023-02-25T10:52:28;97836.94;;;29.14;15.21
42691;BME280;28306;55.744;37.578;2023-02-25T10:54:53;97844.00;;;29.15;15.20
42691;BME280;28306;55.744;37.578;2023-02-25T10:57:24;97842.88;;;29.16;15.20
42691;BME280;28306;55.744;37.578;2023-02-25T11:00:00;97849.47;;;29.15;15.16
42691;BME280;28306;55.744;37.578;2023-02-25T11:02:29;97850.28;;;29.16;15.16
42691;BME280;28306;55.744;37.578;2023-02-25T11:04:56;97852.56;;;29.13;15.19
42691;BME280;28306;55.744;37.578;2023-02-25T11:15:39;97846.97;;;29.10;15.39
42691;BME280;28306;55.744;37.578;2023-02-25T11:18:03;97853.56;;;29.09;15.25
42691;BME280;28306;55.744;37.578;2023-02-25T11:20:29;97859.03;;;29.09;15.33
42691;BME280;28306;55.744;37.578;2023-02-25T11:22:56;97862.59;;;29.09;15.37
42691;BME280;28306;55.744;37.578;2023-02-25T11:25:28;97861.78;;;29.09;15.28
42691;BME280;28306;55.744;37.578;2023-02-25T11:27:56;97856.63;;;29.07;15.06
42691;BME280;28306;55.744;37.578;2023-02-25T11:30:33;97856.31;;;29.09;15.27
42691;BME280;28306;55.744;37.578;2023-02-25T11:32:59;97849.25;;;29.08;15.07
42691;BME280;28306;55.744;37.578;2023-02-25T11:35:31;97843.75;;;29.08;15.12
42691;BME280;28306;55.744;37.578;2023-02-25T11:38:12;97840.69;;;29.09;15.31
42691;BME280;28306;55.744;37.578;2023-02-25T11:40:42;97841.47;;;29.10;14.94
42691;BME280;28306;55.744;37.578;2023-02-25T11:43:18;97839.53;;;29.10;15.21
42691;BME280;28306;55.744;37.578;2023-02-25T11:48:29;97843.88;;;29.11;15.18
42691;BME280;28306;55.744;37.578;2023-02-25T11:56:15;97854.50;;;29.13;15.11
42691;BME280;28306;55.744;37.578;2023-02-25T12:14:15;97872.72;;;29.09;15.19
42691;BME280;28306;55.744;37.578;2023-02-25T12:24:43;97872.72;;;29.09;15.31
42691;BME280;28306;55.744;37.578;2023-02-25T13:04:22;97877.63;;;29.03;15.45
42691;BME280;28306;55.744;37.578;2023-02-25T13:12:04;97877.16;;;29.01;15.53
42691;BME280;28306;55.744;37.578;2023-02-25T13:22:46;97867.69;;;28.99;15.40
42691;BME280;28306;55.744;37.578;2023-02-25T13:56:25;97848.84;;;28.97;15.17
42691;BME280;28306;55.744;37.578;2023-02-25T14:17:45;97866.03;;;28.85;15.53
42691;BME280;28306;55.744;37.578;2023-02-25T14:35:43;97880.03;;;28.84;15.66
42691;BME280;28306;55.744;37.578;2023-02-25T14:38:14;97878.47;;;28.83;15.88
42691;BME280;28306;55.744;37.578;2023-02-25T14:43:34;97887.47;;;28.83;15.77
42691;BME280;28306;55.744;37.578;2023-02-25T14:48:32;97883.09;;;28.82;15.83
42691;BME280;28306;55.744;37.578;2023-02-25T15:04:21;97868.50;;;28.78;15.72
42691;BME280;28306;55.744;37.578;2023-02-25T15:07:03;97863.03;;;28.78;15.86
42691;BME280;28306;55.744;37.578;2023-02-25T15:22:54;97868.84;;;28.76;15.64
42691;BME280;28306;55.744;37.578;2023-02-25T15:25:33;97859.81;;;28.76;15.70
42691;BME280;28306;55.744;37.578;2023-02-25T15:28:00;97870.75;;;28.76;15.53
42691;BME280;28306;55.744;37.578;2023-02-25T15:30:26;97857.06;;;28.76;15.58
42691;BME280;28306;55.744;37.578;2023-02-25T15:38:05;97858.22;;;28.75;15.72
42691;BME280;28306;55.744;37.578;2023-02-25T15:43:01;97864.50;;;28.75;15.66
42691;BME280;28306;55.744;37.578;2023-02-25T15:48:33;97841.00;;;28.74;15.70
42691;BME280;28306;55.744;37.578;2023-02-25T15:50:59;97840.19;;;28.74;15.84
42691;BME280;28306;55.744;37.578;2023-02-25T15:55:53;97860.47;;;28.73;15.75
42691;BME280;28306;55.744;37.578;2023-02-25T15:58:41;97835.84;;;28.73;15.98
42691;BME280;28306;55.744;37.578;2023-02-25T16:06:03;97844.06;;;28.73;15.98
42691;BME280;28306;55.744;37.578;2023-02-25T16:08:33;97845.22;;;28.72;15.77
42691;BME280;28306;55.744;37.578;2023-02-25T16:10:59;97848.28;;;28.70;15.80
42691;BME280;28306;55.744;37.578;2023-02-25T16:13:28;97863.88;;;28.70;15.71
42691;BME280;28306;55.744;37.578;2023-02-25T16:15:54;97862.31;;;28.69;16.04
42691;BME280;28306;55.744;37.578;2023-02-25T16:18:27;97851.34;;;28.69;15.75
42691;BME280;28306;55.744;37.578;2023-02-25T16:21:05;97847.81;;;28.68;15.86
42691;BME280;28306;55.744;37.578;2023-02-25T16:23:32;97844.28;;;28.68;15.95
42691;BME280;28306;55.744;37.578;2023-02-25T16:26:07;97831.72;;;28.67;15.69
42691;BME280;28306;55.744;37.578;2023-02-25T16:36:14;97836.41;;;28.66;15.99
42691;BME280;28306;55.744;37.578;2023-02-25T16:41:08;97823.50;;;28.67;15.90
42691;BME280;28306;55.744;37.578;2023-02-25T16:43:36;97825.44;;;28.66;15.84
42691;BME280;28306;55.744;37.578;2023-02-25T16:46:06;97830.59;;;28.68;15.80
42691;BME280;28306;55.744;37.578;2023-02-25T16:48:36;97821.59;;;28.67;15.77
42691;BME280;28306;55.744;37.578;2023-02-25T16:51:09;97819.97;;;28.66;15.73
42691;BME280;28306;55.744;37.578;2023-02-25T16:53:36;97814.50;;;28.66;15.86
42691;BME280;28306;55.744;37.578;2023-02-25T16:56:05;97813.72;;;28.66;15.89
42691;BME280;28306;55.744;37.578;2023-02-25T16:58:31;97805.50;;;28.66;16.05
42691;BME280;28306;55.744;37.578;2023-02-25T17:00:58;97801.16;;;28.65;15.87
42691;BME280;28306;55.744;37.578;2023-02-25T17:03:25;97814.06;;;28.64;15.96
42691;BME280;28306;55.744;37.578;2023-02-25T17:05:57;97822.25;;;28.64;15.84
42691;BME280;28306;55.744;37.578;2023-02-25T17:08:23;97826.56;;;28.65;15.84
42691;BME280;28306;55.744;37.578;2023-02-25T17:10:49;97834.00;;;28.65;16.11
42691;BME280;28306;55.744;37.578;2023-02-25T17:13:38;97835.16;;;28.64;15.97
42691;BME280;28306;55.744;37.578;2023-02-25T17:16:02;97827.72;;;28.64;15.99
42691;BME280;28306;55.744;37.578;2023-02-25T17:24:02;97817.91;;;28.63;15.75
42691;BME280;28306;55.744;37.578;2023-02-25T17:26:29;97829.69;;;28.64;16.04
42691;BME280;28306;55.744;37.578;2023-02-25T17:28:56;97828.06;;;28.63;16.06
42691;BME280;28306;55.744;37.578;2023-02-25T17:31:24;97822.59;;;28.63;15.81